Time;durP1;ratioP1;P1;durP2;ratioP2;P2;SDS_P1;SDS_P2;PMS_P1;PMS_P2;Temp;Humidity;BMP_temperature;BMP_pressure;BME280_temperature;BME280_humidity;BME280_pressure;Samples;Min_cycle;Max_cycle;Signal;HPM_P1;HPM_P2
2022/06/20 00:00:48;;;;;;;16.73;4.32;;;10.40;82.00;;;;;;4949979;28;20071;-71
2022/06/20 00:03:27;;;;;;;19.35;4.20;;;10.30;82.20;;;;;;4948384;28;20489;-71
2022/06/20 00:05:55;;;;;;;15.77;3.95;;;10.30;82.50;;;;;;4950323;28;20527;-71
2022/06/20 00:08:23;;;;;;;13.10;3.45;;;10.20;82.40;;;;;;4947172;28;20055;-71
2022/06/20 00:10:52;;;;;;;15.23;3.47;;;10.20;82.60;;;;;;4948466;28;20055;-72
2022/06/20 00:13:34;;;;;;;15.48;3.33;;;10.10;82.80;;;;;;4943017;28;20055;-71
2022/06/20 00:16:02;;;;;;;17.17;4.25;;;10.10;82.90;;;;;;4948713;28;20485;-71
2022/06/20 00:18:31;;;;;;;23.63;4.88;;;10.00;83.00;;;;;;4949666;28;20383;-71
2022/06/20 00:20:59;;;;;;;16.02;4.43;;;10.00;83.20;;;;;;4948017;28;20437;-71
2022/06/20 00:23:27;;;;;;;20.17;4.28;;;9.90;83.30;;;;;;4950037;28;20398;-72
2022/06/20 00:25:55;;;;;;;16.80;3.88;;;9.90;83.50;;;;;;4948874;28;20055;-71
2022/06/20 00:28:23;;;;;;;17.42;3.65;;;9.90;83.60;;;;;;4950292;28;20047;-71
2022/06/20 00:30:50;;;;;;;16.38;3.55;;;9.80;83.70;;;;;;4949348;28;20054;-71
2022/06/20 00:33:18;;;;;;;16.90;3.88;;;9.80;83.80;;;;;;4948427;28;20414;-71
2022/06/20 00:35:46;;;;;;;21.23;4.57;;;9.80;83.90;;;;;;4944983;28;20517;-71
2022/06/20 00:38:18;;;;;;;16.98;3.85;;;9.70;84.00;;;;;;4950514;28;20043;-71
2022/06/20 00:40:50;;;;;;;17.00;4.03;;;9.70;84.20;;;;;;4946955;28;20058;-71
2022/06/20 00:43:27;;;;;;;13.48;3.90;;;9.60;84.30;;;;;;4961896;28;20054;-71
2022/06/20 00:46:35;;;;;;;15.10;3.78;;;9.50;84.50;;;;;;4952952;28;20046;-70
2022/06/20 00:49:26;;;;;;;17.52;4.32;;;9.50;84.50;;;;;;4949142;28;20049;-71
2022/06/20 00:52:15;;;;;;;13.82;3.60;;;9.50;84.90;;;;;;4950127;28;20050;-71
2022/06/20 00:55:15;;;;;;;16.63;3.83;;;9.50;84.90;;;;;;4948409;28;20046;-72
2022/06/20 00:58:13;;;;;;;17.20;3.33;;;9.40;84.90;;;;;;4948231;28;20070;-72
2022/06/20 01:00:59;;;;;;;11.43;3.53;;;9.30;85.10;;;;;;4950162;28;20050;-72
2022/06/20 01:03:51;;;;;;;16.52;3.90;;;9.30;85.10;;;;;;4950454;28;20059;-71
2022/06/20 01:06:47;;;;;;;10.43;3.50;;;9.10;85.20;;;;;;4950852;28;20405;-72
2022/06/20 01:09:39;;;;;;;9.18;3.35;;;9.00;85.30;;;;;;4945693;28;20066;-71
2022/06/20 01:12:29;;;;;;;16.70;3.10;;;9.00;85.40;;;;;;4947213;28;20527;-71
2022/06/20 01:15:23;;;;;;;11.77;3.22;;;9.00;85.50;;;;;;4947567;28;20058;-72
2022/06/20 01:18:26;;;;;;;11.57;3.20;;;9.00;85.50;;;;;;4949396;28;20520;-72
2022/06/20 01:21:19;;;;;;;10.10;3.20;;;8.90;85.60;;;;;;4951900;28;20047;-72
2022/06/20 01:24:12;;;;;;;12.50;3.47;;;8.80;85.60;;;;;;4947008;28;20054;-72
2022/06/20 01:27:14;;;;;;;;;;;8.80;85.70;;;;;;4948649;28;20317;-72
2022/06/20 01:30:01;;;;;;;18.73;5.20;;;8.80;85.70;;;;;;4946774;28;19933;-72
2022/06/20 01:32:47;;;;;;;15.07;4.80;;;8.70;85.60;;;;;;4949534;28;20074;-71
2022/06/20 01:38:42;;;;;;;11.82;3.95;;;8.70;85.70;;;;;;4951411;28;20086;-71
2022/06/20 01:44:39;;;;;;;16.45;4.55;;;8.60;85.80;;;;;;4945362;28;20058;-71
2022/06/20 01:47:25;;;;;;;18.23;4.85;;;8.50;85.90;;;;;;4943591;28;20054;-71
2022/06/20 01:50:11;;;;;;;13.57;4.28;;;8.40;86.00;;;;;;4947483;28;20054;-71
2022/06/20 01:53:01;;;;;;;9.60;3.80;;;8.40;86.10;;;;;;4946918;28;20054;-70
2022/06/20 01:55:51;;;;;;;13.20;4.13;;;8.30;86.20;;;;;;4947577;28;20068;-70
2022/06/20 01:58:41;;;;;;;14.63;4.15;;;8.30;86.20;;;;;;4944298;28;20062;-70
2022/06/20 02:01:31;;;;;;;14.63;4.43;;;8.20;86.40;;;;;;4951534;28;20059;-70
2022/06/20 02:04:23;;;;;;;15.80;4.25;;;8.30;86.50;;;;;;4949036;28;20065;-70
2022/06/20 02:07:10;;;;;;;11.40;3.92;;;8.20;86.50;;;;;;4948811;28;20066;-70
2022/06/20 02:09:56;;;;;;;10.70;4.07;;;8.20;86.60;;;;;;4949612;28;20511;-71
2022/06/20 02:12:44;;;;;;;16.48;4.10;;;8.20;86.70;;;;;;4948654;28;20680;-70
2022/06/20 02:15:32;;;;;;;14.68;4.20;;;8.10;86.70;;;;;;4945901;28;20046;-70
2022/06/20 02:18:19;;;;;;;14.95;4.10;;;8.00;86.70;;;;;;4950148;28;20062;-70
2022/06/20 02:21:10;;;;;;;14.27;4.07;;;8.00;86.90;;;;;;4946325;28;20070;-70
2022/06/20 02:24:08;;;;;;;10.75;4.15;;;7.90;86.90;;;;;;4945082;28;20119;-71
2022/06/20 02:27:01;;;;;;;21.95;6.07;;;8.00;87.00;;;;;;4947206;28;20054;-71
2022/06/20 02:29:48;;;;;;;16.65;5.30;;;8.00;87.00;;;;;;4945381;28;20058;-71
2022/06/20 02:32:44;;;;;;;17.50;5.00;;;8.00;86.90;;;;;;4947520;28;20058;-71
2022/06/20 02:35:31;;;;;;;17.02;4.72;;;8.00;86.90;;;;;;4945175;28;20051;-71
2022/06/20 02:38:18;;;;;;;13.52;4.28;;;8.00;86.80;;;;;;4948403;28;20405;-71
2022/06/20 02:41:04;;;;;;;12.60;3.72;;;7.90;86.90;;;;;;4948102;28;20050;-71
2022/06/20 02:44:16;;;;;;;13.02;3.95;;;7.80;86.90;;;;;;4949682;28;20079;-71
2022/06/20 02:47:05;;;;;;;9.60;3.55;;;7.80;87.10;;;;;;4950554;28;20520;-71
2022/06/20 02:49:56;;;;;;;11.65;4.07;;;7.80;87.10;;;;;;4952275;28;20066;-72
2022/06/20 02:53:00;;;;;;;10.52;3.63;;;7.80;87.20;;;;;;4952149;28;20448;-73
2022/06/20 02:55:49;;;;;;;8.98;3.60;;;7.80;87.20;;;;;;4952988;28;20062;-71
2022/06/20 02:58:39;;;;;;;9.93;3.65;;;7.80;87.10;;;;;;4948598;28;20059;-71
2022/06/20 03:01:37;;;;;;;10.75;3.92;;;7.80;87.10;;;;;;4952349;28;20059;-71
2022/06/20 03:04:24;;;;;;;11.15;4.15;;;7.80;87.20;;;;;;4950539;28;20409;-71
2022/06/20 03:07:14;;;;;;;14.20;4.38;;;7.70;87.20;;;;;;4949002;28;20047;-72
2022/06/20 03:10:16;;;;;;;19.17;5.32;;;7.70;87.30;;;;;;4951743;28;20055;-72
2022/06/20 03:13:02;;;;;;;20.65;5.13;;;7.70;87.30;;;;;;4948843;28;20516;-72
2022/06/20 03:15:51;;;;;;;12.80;4.03;;;7.70;87.30;;;;;;4949284;28;20112;-71
2022/06/20 03:18:42;;;;;;;13.38;4.10;;;7.70;87.30;;;;;;4948527;28;20066;-71
2022/06/20 03:21:35;;;;;;;9.98;3.63;;;7.60;87.30;;;;;;4951508;28;20452;-73
2022/06/20 03:24:24;;;;;;;14.93;4.53;;;7.60;87.30;;;;;;4951246;28;20074;-71
2022/06/20 03:27:15;;;;;;;10.70;3.92;;;7.50;87.40;;;;;;4953872;28;20058;-71
2022/06/20 03:30:21;;;;;;;12.00;3.70;;;7.50;87.50;;;;;;4947628;28;20054;-71
2022/06/20 03:33:13;;;;;;;7.93;3.53;;;7.50;87.60;;;;;;4950893;28;20058;-71
2022/06/20 03:36:14;;;;;;;15.63;3.92;;;7.50;87.60;;;;;;4949886;28;20058;-71
2022/06/20 03:39:03;;;;;;;14.10;3.60;;;7.50;87.60;;;;;;4949516;28;20073;-71
2022/06/20 03:41:51;;;;;;;11.55;3.33;;;7.50;87.60;;;;;;4950323;28;20066;-71
2022/06/20 03:44:42;;;;;;;14.30;4.00;;;7.40;87.60;;;;;;4948537;28;20058;-71
2022/06/20 03:47:41;;;;;;;17.02;4.78;;;7.50;87.70;;;;;;4950815;28;20058;-71
2022/06/20 03:50:37;;;;;;;16.05;4.78;;;7.60;87.70;;;;;;4949814;28;20059;-71
2022/06/20 03:53:33;;;;;;;19.02;6.10;;;7.70;87.70;;;;;;4947978;28;20685;-71
2022/06/20 03:56:41;;;;;;;;;;;7.80;87.60;;;;;;4948949;28;20552;-71
2022/06/20 03:59:39;;;;;;;15.00;4.95;;;7.90;87.40;;;;;;4949972;28;20296;-72
2022/06/20 04:02:35;;;;;;;14.55;4.15;;;8.00;87.20;;;;;;4952326;28;20405;-71
2022/06/20 04:05:25;;;;;;;17.83;4.75;;;8.20;87.10;;;;;;4948980;28;20058;-71
2022/06/20 04:08:19;;;;;;;11.70;4.18;;;8.20;87.00;;;;;;4950535;28;20050;-72
2022/06/20 04:11:06;;;;;;;8.15;3.90;;;8.30;87.00;;;;;;4947307;29;20057;-71
2022/06/20 04:13:59;;;;;;;13.30;4.13;;;8.30;87.00;;;;;;4945334;28;20054;-72
2022/06/20 04:16:58;;;;;;;8.65;3.83;;;8.40;87.00;;;;;;4951349;28;20059;-72
2022/06/20 04:19:45;;;;;;;10.68;3.83;;;8.50;87.00;;;;;;4949231;28;20516;-72
2022/06/20 04:22:37;;;;;;;9.90;3.65;;;8.60;86.90;;;;;;4961611;28;20054;-72
2022/06/20 04:25:34;;;;;;;13.73;4.15;;;8.70;86.80;;;;;;4951526;28;20079;-71
2022/06/20 04:28:24;;;;;;;10.85;4.53;;;8.80;86.80;;;;;;4946984;28;20055;-72
2022/06/20 04:31:35;;;;;;;13.85;4.50;;;8.80;86.70;;;;;;4947991;28;20070;-71
2022/06/20 04:34:50;;;;;;;17.52;4.80;;;8.90;86.60;;;;;;4947963;28;20046;-72
2022/06/20 04:37:45;;;;;;;15.77;4.60;;;9.00;86.50;;;;;;4950965;28;20062;-72
2022/06/20 04:40:47;;;;;;;11.23;4.20;;;9.20;86.40;;;;;;4949543;28;20058;-71
2022/06/20 04:43:50;;;;;;;11.98;3.97;;;9.30;86.30;;;;;;4952091;28;20070;-71
2022/06/20 04:46:49;;;;;;;13.50;3.88;;;9.40;86.10;;;;;;4947683;28;20524;-71
2022/06/20 04:49:37;;;;;;;10.73;3.45;;;9.50;86.00;;;;;;4949380;28;20421;-71
2022/06/20 04:52:26;;;;;;;9.15;3.00;;;9.60;85.90;;;;;;4949688;28;20059;-71
2022/06/20 04:55:19;;;;;;;12.23;3.10;;;9.70;85.70;;;;;;4949676;28;20057;-70
2022/06/20 04:58:14;;;;;;;8.43;2.72;;;9.80;85.60;;;;;;4947419;28;20520;-71
2022/06/20 05:01:02;;;;;;;8.15;3.20;;;9.70;85.50;;;;;;4944182;28;20058;-71
2022/06/20 05:03:57;;;;;;;10.52;3.03;;;9.70;85.40;;;;;;4947995;28;20062;-71
2022/06/20 05:06:44;;;;;;;6.90;3.10;;;9.80;85.50;;;;;;4948159;28;20048;-71
2022/06/20 05:09:41;;;;;;;7.25;2.80;;;9.70;85.60;;;;;;4948054;28;20051;-71
2022/06/20 05:12:43;;;;;;;12.63;3.85;;;9.70;85.60;;;;;;4948006;28;20050;-71
2022/06/20 05:15:43;;;;;;;10.07;3.28;;;9.70;85.70;;;;;;4950313;28;20058;-71
2022/06/20 05:18:31;;;;;;;10.88;3.42;;;9.80;85.60;;;;;;4948170;28;20058;-71
2022/06/20 05:21:23;;;;;;;12.98;3.30;;;9.70;85.60;;;;;;4951483;28;20054;-71
2022/06/20 05:24:21;;;;;;;10.35;3.40;;;9.80;85.60;;;;;;4947717;28;20051;-71
2022/06/20 05:27:37;;;;;;;10.00;3.13;;;9.80;85.60;;;;;;4948460;28;20058;-71
2022/06/20 05:30:27;;;;;;;13.40;3.15;;;9.90;85.60;;;;;;4947267;28;20519;-75
2022/06/20 05:33:25;;;;;;;6.20;3.10;;;10.00;85.40;;;;;;4953091;28;20516;-72
2022/06/20 05:36:02;;;;;;;11.30;3.05;;;10.10;85.30;;;;;;4948283;28;20520;-71
2022/06/20 05:38:38;;;;;;;6.78;2.72;;;10.20;85.10;;;;;;4948495;28;20054;-71
2022/06/20 05:41:08;;;;;;;11.88;3.25;;;10.30;84.90;;;;;;4956805;28;20043;-71
2022/06/20 05:43:36;;;;;;;4.82;2.60;;;10.30;84.70;;;;;;4946922;28;20051;-72
2022/06/20 05:46:07;;;;;;;9.90;3.10;;;10.40;84.50;;;;;;4945208;28;20058;-71
2022/06/20 05:48:46;;;;;;;6.90;2.35;;;10.50;84.30;;;;;;4948813;28;20405;-70
2022/06/20 05:51:16;;;;;;;6.32;2.40;;;10.60;84.20;;;;;;4944082;28;20095;-71
2022/06/20 05:54:02;;;;;;;6.72;2.55;;;10.70;83.90;;;;;;4945353;28;20054;-71
2022/06/20 05:56:43;;;;;;;8.05;2.40;;;10.80;83.50;;;;;;4957575;28;20047;-71
2022/06/20 05:59:33;;;;;;;10.88;2.50;;;10.90;83.10;;;;;;4947250;28;20062;-71
2022/06/20 06:02:22;;;;;;;5.45;1.85;;;11.00;82.50;;;;;;4940279;28;20070;-71
2022/06/20 06:05:28;;;;;;;6.82;1.98;;;11.20;82.10;;;;;;4946727;28;20417;-71
2022/06/20 06:07:57;;;;;;;5.07;1.92;;;11.30;81.50;;;;;;4945980;28;20047;-71
2022/06/20 06:10:35;;;;;;;6.25;2.10;;;11.40;80.90;;;;;;4947271;28;20054;-71
2022/06/20 06:13:33;;;;;;;5.95;2.03;;;11.50;80.60;;;;;;4941295;28;20441;-72
2022/06/20 06:19:04;;;;;;;7.53;2.25;;;11.80;79.50;;;;;;4948005;28;20051;-71
2022/06/20 06:21:33;;;;;;;3.90;1.88;;;11.90;79.00;;;;;;4952797;28;20505;-71
2022/06/20 06:24:02;;;;;;;5.15;1.90;;;12.10;78.40;;;;;;4952815;28;20051;-72
2022/06/20 06:26:29;;;;;;;9.05;1.98;;;12.20;77.90;;;;;;4951679;28;20036;-71
2022/06/20 06:28:57;;;;;;;5.90;2.10;;;12.30;77.40;;;;;;4951552;28;20046;-71
2022/06/20 06:31:31;;;;;;;6.50;2.00;;;12.30;76.90;;;;;;4950035;28;20082;-71
2022/06/20 06:34:23;;;;;;;6.88;1.80;;;12.40;76.40;;;;;;4952268;28;20051;-71
2022/06/20 06:36:53;;;;;;;3.05;1.63;;;12.50;75.60;;;;;;4951909;28;20051;-71
2022/06/20 06:39:32;;;;;;;5.47;1.73;;;12.60;75.00;;;;;;4950720;28;20058;-72
2022/06/20 06:42:03;;;;;;;2.78;1.65;;;12.60;74.40;;;;;;4951933;28;20046;-72
2022/06/20 06:44:38;;;;;;;8.00;2.03;;;12.70;74.10;;;;;;4951620;28;20067;-71
2022/06/20 06:47:17;;;;;;;6.55;1.70;;;12.70;73.90;;;;;;4952217;28;20054;-72
2022/06/20 06:49:47;;;;;;;6.30;1.55;;;12.80;73.60;;;;;;4950637;28;20079;-72
2022/06/20 06:52:38;;;;;;;8.60;2.03;;;12.80;73.30;;;;;;4948499;28;20047;-72
2022/06/20 06:55:29;;;;;;;3.70;1.48;;;12.80;72.80;;;;;;4947492;28;20050;-72
2022/06/20 06:58:25;;;;;;;6.00;1.50;;;12.90;72.40;;;;;;4951314;28;20059;-71
2022/06/20 07:01:13;;;;;;;5.93;1.88;;;12.90;72.20;;;;;;4941979;28;20047;-71
2022/06/20 07:04:13;;;;;;;6.53;1.80;;;13.00;71.90;;;;;;4951417;28;20485;-71
2022/06/20 07:06:47;;;;;;;4.38;1.70;;;13.00;71.70;;;;;;4920036;28;20409;-71
2022/06/20 07:09:20;;;;;;;5.90;1.70;;;13.10;71.50;;;;;;4948643;28;20504;-72
2022/06/20 07:12:26;;;;;;;4.40;1.58;;;13.10;71.30;;;;;;4951311;28;20717;-72
2022/06/20 07:15:06;;;;;;;4.30;1.52;;;13.10;70.90;;;;;;4944520;28;20062;-72
2022/06/20 07:17:47;;;;;;;7.50;1.67;;;13.30;70.90;;;;;;4947637;28;20577;-71
2022/06/20 07:20:16;;;;;;;5.20;1.40;;;13.30;70.60;;;;;;4951084;28;20046;-72
2022/06/20 07:22:45;;;;;;;11.20;1.90;;;13.30;70.20;;;;;;4952970;28;20054;-72
2022/06/20 07:25:35;;;;;;;3.40;1.52;;;13.30;69.90;;;;;;4947026;28;20819;-72
2022/06/20 07:28:19;;;;;;;4.22;1.67;;;13.30;69.20;;;;;;4950803;28;20460;-73
2022/06/20 07:30:53;;;;;;;5.63;1.40;;;13.40;68.90;;;;;;4946623;28;20055;-72
2022/06/20 07:33:26;;;;;;;5.38;1.80;;;13.40;68.60;;;;;;4947162;28;20055;-72
2022/06/20 07:35:57;;;;;;;8.38;1.90;;;13.40;68.30;;;;;;4952606;28;20058;-73
2022/06/20 07:38:35;;;;;;;4.53;1.60;;;13.50;68.30;;;;;;4949457;28;20047;-71
2022/06/20 07:41:13;;;;;;;4.40;1.55;;;13.60;68.10;;;;;;4949774;28;20043;-71
2022/06/20 07:43:48;;;;;;;5.85;2.17;;;13.60;68.00;;;;;;4954692;29;20059;-71
2022/06/20 07:46:27;;;;;;;4.50;1.60;;;13.80;67.80;;;;;;4954834;29;20621;-72
2022/06/20 07:49:00;;;;;;;3.65;1.98;;;13.80;67.50;;;;;;4955771;29;20047;-73
2022/06/20 07:51:33;;;;;;;6.50;1.55;;;13.80;67.40;;;;;;4955735;29;20031;-72
2022/06/20 07:54:17;;;;;;;5.57;2.10;;;13.90;67.00;;;;;;4955124;28;20059;-71
2022/06/20 07:56:53;;;;;;;4.20;1.48;;;13.80;67.20;;;;;;4955955;29;20051;-71
2022/06/20 07:59:29;;;;;;;7.25;1.75;;;13.90;66.90;;;;;;4955201;29;20489;-72
2022/06/20 08:02:29;;;;;;;5.55;1.77;;;14.00;66.70;;;;;;4943728;29;20064;-71
2022/06/20 08:04:59;;;;;;;3.13;1.65;;;14.00;66.00;;;;;;4951891;29;20052;-73
2022/06/20 08:07:47;;;;;;;4.97;1.75;;;14.10;66.00;;;;;;4955864;29;20055;-72
2022/06/20 08:10:31;;;;;;;5.40;1.73;;;14.20;65.90;;;;;;4954541;29;20055;-72
2022/06/20 08:13:33;;;;;;;5.95;1.80;;;14.30;65.90;;;;;;4955463;29;20043;-73
2022/06/20 08:16:24;;;;;;;6.22;1.95;;;14.30;65.70;;;;;;4948035;29;20059;-71
2022/06/20 08:18:52;;;;;;;7.18;1.83;;;14.40;65.30;;;;;;4955548;29;20059;-72
2022/06/20 08:21:28;;;;;;;4.70;1.50;;;14.60;65.20;;;;;;4955561;29;20354;-72
2022/06/20 08:24:22;;;;;;;4.55;1.67;;;14.60;64.70;;;;;;4955521;29;20058;-72
2022/06/20 08:27:13;;;;;;;8.48;1.73;;;14.80;64.50;;;;;;4945418;29;20413;-72
2022/06/20 08:29:54;;;;;;;5.32;1.73;;;14.80;63.60;;;;;;4936086;29;20189;-72
2022/06/20 08:32:34;;;;;;;6.10;2.25;;;14.90;63.10;;;;;;4938310;29;20066;-73
2022/06/20 08:35:21;;;;;;;4.95;1.73;;;14.90;62.80;;;;;;4955583;29;20054;-70
2022/06/20 08:37:58;;;;;;;8.70;1.60;;;14.90;62.80;;;;;;4955074;28;20066;-71
2022/06/20 08:40:56;;;;;;;3.80;1.60;;;14.80;62.80;;;;;;4954920;28;20078;-72
2022/06/20 08:43:29;;;;;;;3.97;1.55;;;14.90;62.20;;;;;;4955637;29;20054;-71
2022/06/20 08:46:18;;;;;;;5.90;1.70;;;14.90;62.10;;;;;;4955223;28;20060;-71
2022/06/20 08:49:04;;;;;;;7.13;1.58;;;14.90;62.00;;;;;;4955282;29;20043;-71
2022/06/20 08:52:10;;;;;;;6.45;1.70;;;15.10;61.90;;;;;;4955276;29;20058;-72
2022/06/20 08:55:15;;;;;;;2.85;1.30;;;15.30;61.40;;;;;;4954859;29;20163;-72
2022/06/20 08:58:14;;;;;;;5.40;1.48;;;15.50;60.60;;;;;;4954693;28;20062;-72
2022/06/20 09:01:15;;;;;;;7.70;1.45;;;15.60;60.30;;;;;;4942063;28;20452;-72
2022/06/20 09:04:02;;;;;;;6.07;1.50;;;15.80;60.40;;;;;;4876983;29;20053;-72
2022/06/20 09:06:45;;;;;;;11.27;1.90;;;16.00;60.20;;;;;;4876137;29;20061;-72
2022/06/20 09:09:28;;;;;;;4.82;1.70;;;16.30;60.00;;;;;;4876770;29;20462;-72
2022/06/20 09:12:29;;;;;;;7.90;1.77;;;16.40;59.40;;;;;;4876047;29;20435;-72
2022/06/20 09:15:29;;;;;;;5.13;1.85;;;16.60;58.60;;;;;;4876444;29;20169;-72
2022/06/20 09:18:18;;;;;;;6.43;1.80;;;16.60;58.40;;;;;;4860891;29;20052;-72
2022/06/20 09:20:57;;;;;;;5.97;1.75;;;16.50;58.10;;;;;;4876577;29;20060;-72
2022/06/20 09:23:39;;;;;;;6.80;1.70;;;16.50;57.90;;;;;;4876761;29;20408;-71
2022/06/20 09:26:17;;;;;;;4.43;1.60;;;16.40;57.90;;;;;;4860288;29;20065;-72
2022/06/20 09:29:00;;;;;;;4.20;1.40;;;16.40;57.70;;;;;;4876279;29;20060;-71
2022/06/20 09:31:30;;;;;;;5.25;1.60;;;16.50;57.30;;;;;;4876573;29;20061;-71
2022/06/20 09:34:40;;;;;;;7.05;1.83;;;16.60;57.10;;;;;;4875947;29;20064;-71
2022/06/20 09:37:58;;;;;;;5.70;1.80;;;16.70;56.40;;;;;;4875694;29;20463;-70
2022/06/20 09:40:40;;;;;;;8.13;1.77;;;16.80;56.10;;;;;;4915924;29;20059;-70
2022/06/20 09:43:26;;;;;;;3.88;1.70;;;17.10;56.30;;;;;;4947501;29;20418;-70
2022/06/20 09:46:11;;;;;;;5.00;1.70;;;17.20;55.70;;;;;;4954050;29;20051;-70
2022/06/20 09:48:55;;;;;;;6.43;1.55;;;17.30;55.40;;;;;;4950150;29;20050;-71
2022/06/20 09:51:38;;;;;;;3.25;1.45;;;17.30;55.20;;;;;;4949446;28;20390;-71
2022/06/20 09:54:43;;;;;;;10.45;1.70;;;17.30;55.00;;;;;;4950121;29;20374;-72
2022/06/20 09:57:41;;;;;;;3.45;1.52;;;17.30;54.30;;;;;;4943295;29;20489;-71
2022/06/20 10:00:20;;;;;;;3.22;1.08;;;17.30;54.10;;;;;;4950080;29;20435;-71
2022/06/20 10:03:02;;;;;;;5.72;1.60;;;17.60;54.20;;;;;;4951837;29;20393;-71
2022/06/20 10:05:51;;;;;;;4.60;1.35;;;17.90;53.70;;;;;;4950333;29;20408;-72
2022/06/20 10:08:44;;;;;;;9.68;1.45;;;18.00;52.50;;;;;;4949971;29;20044;-71
2022/06/20 10:11:20;;;;;;;3.28;1.40;;;18.00;51.30;;;;;;4941213;29;20065;-71
2022/06/20 10:14:05;;;;;;;3.33;1.48;;;17.90;51.00;;;;;;4945233;29;20398;-71
2022/06/20 10:16:45;;;;;;;5.18;1.77;;;17.80;51.30;;;;;;4948009;29;20054;-71
2022/06/20 10:19:32;;;;;;;5.75;2.20;;;17.80;51.50;;;;;;4949593;29;20044;-70
2022/06/20 10:22:13;;;;;;;3.92;1.40;;;18.20;50.90;;;;;;4953461;29;20048;-71
2022/06/20 10:25:19;;;;;;;4.55;1.23;;;18.50;50.40;;;;;;4947871;29;20043;-71
2022/06/20 10:28:36;;;;;;;3.60;1.38;;;18.80;49.80;;;;;;4951277;29;20051;-71
2022/06/20 10:31:08;;;;;;;5.28;1.58;;;19.20;49.70;;;;;;4874067;29;20083;-71
2022/06/20 10:33:51;;;;;;;3.15;1.42;;;19.40;47.90;;;;;;4875555;29;20071;-71
2022/06/20 10:36:38;;;;;;;3.60;1.55;;;19.20;47.70;;;;;;4874262;29;20085;-71
2022/06/20 10:39:57;;;;;;;7.68;1.70;;;18.80;48.40;;;;;;4868998;29;20127;-71
2022/06/20 10:42:46;;;;;;;4.70;1.67;;;18.70;48.50;;;;;;4844668;29;20064;-70
2022/06/20 10:45:41;;;;;;;5.72;1.70;;;18.80;48.20;;;;;;4856889;29;20195;-71
2022/06/20 10:48:23;;;;;;;7.13;1.80;;;19.30;48.00;;;;;;4841697;29;20058;-70
2022/06/20 10:51:25;;;;;;;8.90;1.60;;;19.80;47.80;;;;;;4830696;29;20050;-70
2022/06/20 10:54:14;;;;;;;5.15;1.60;;;20.20;46.50;;;;;;4838287;29;20064;-70
2022/06/20 10:57:11;;;;;;;5.80;1.67;;;20.50;45.80;;;;;;4840564;29;20056;-71
2022/06/20 10:59:56;;;;;;;3.55;1.50;;;20.50;45.50;;;;;;4836196;29;20049;-71
2022/06/20 11:02:27;;;;;;;7.82;2.00;;;20.30;44.50;;;;;;4844981;29;20053;-70
2022/06/20 11:05:03;;;;;;;4.18;1.88;;;19.90;45.50;;;;;;4857017;29;20424;-70
2022/06/20 11:07:42;;;;;;;5.78;1.95;;;19.90;46.50;;;;;;4876119;29;20063;-71
2022/06/20 11:10:25;;;;;;;3.50;1.80;;;20.20;46.40;;;;;;4895806;29;20056;-72
2022/06/20 11:13:16;;;;;;;6.05;2.00;;;20.20;45.70;;;;;;4916053;29;20064;-72
2022/06/20 11:16:01;;;;;;;5.75;1.77;;;19.90;45.80;;;;;;4911167;29;20055;-71
2022/06/20 11:18:38;;;;;;;6.65;2.20;;;19.70;46.80;;;;;;4950439;29;20047;-71
2022/06/20 11:21:13;;;;;;;4.70;1.70;;;19.80;46.60;;;;;;4936699;29;20043;-70
2022/06/20 11:23:47;;;;;;;9.25;2.30;;;20.00;46.20;;;;;;4936902;29;20043;-70
2022/06/20 11:26:54;;;;;;;8.32;2.17;;;20.00;45.90;;;;;;4937470;29;20048;-69
2022/06/20 11:29:34;;;;;;;8.02;2.17;;;20.00;45.50;;;;;;4914797;29;20079;-70
2022/06/20 11:32:25;;;;;;;7.10;2.03;;;19.90;45.80;;;;;;4952851;29;20494;-69
2022/06/20 11:35:21;;;;;;;5.43;2.00;;;20.10;45.70;;;;;;4947863;29;20156;-69
2022/06/20 11:38:18;;;;;;;5.25;1.70;;;20.50;45.00;;;;;;4955515;29;20051;-69
2022/06/20 11:41:11;;;;;;;5.22;2.00;;;20.90;44.50;;;;;;4924517;29;20051;-69
2022/06/20 11:44:26;;;;;;;5.72;1.70;;;21.20;43.90;;;;;;4937002;29;20059;-70
2022/06/20 11:47:31;;;;;;;8.02;2.10;;;21.30;43.50;;;;;;4936838;29;20063;-71
2022/06/20 11:50:28;;;;;;;8.88;2.60;;;21.40;43.60;;;;;;4945721;29;20051;-70
2022/06/20 11:53:19;;;;;;;7.43;2.63;;;21.50;43.00;;;;;;4956152;28;20058;-70
2022/06/20 11:56:12;;;;;;;8.10;2.00;;;21.60;43.20;;;;;;4956035;29;20050;-70
2022/06/20 11:59:21;;;;;;;5.80;2.20;;;21.70;42.60;;;;;;4949353;29;20063;-70
2022/06/20 12:02:15;;;;;;;6.45;2.00;;;21.70;42.80;;;;;;4955998;29;20043;-70
2022/06/20 12:05:02;;;;;;;;;;;21.80;41.90;;;;;;4937355;29;20474;-69
2022/06/20 12:08:02;;;;;;;7.45;2.28;;;21.90;41.50;;;;;;4944600;29;20361;-70
2022/06/20 12:10:43;;;;;;;9.13;2.05;;;22.00;41.00;;;;;;4935617;29;20062;-70
2022/06/20 12:13:26;;;;;;;5.15;1.70;;;22.10;40.90;;;;;;4943227;29;20062;-70
2022/06/20 12:15:54;;;;;;;6.00;2.22;;;22.30;41.00;;;;;;4944405;28;20055;-70
2022/06/20 12:18:37;;;;;;;4.18;1.90;;;22.40;40.70;;;;;;4943888;29;20050;-70
2022/06/20 12:24:08;;;;;;;6.07;2.25;;;22.60;39.30;;;;;;4951479;29;20387;-70
2022/06/20 12:26:41;;;;;;;4.25;2.15;;;22.40;39.60;;;;;;4952290;29;20043;-71
2022/06/20 12:29:14;;;;;;;;;;;22.50;39.10;;;;;;4951869;29;20047;-71
2022/06/20 12:31:46;;;;;;;7.05;2.22;;;22.60;39.00;;;;;;4955328;29;19929;-70
2022/06/20 12:34:16;;;;;;;7.22;2.13;;;22.80;39.50;;;;;;4955384;29;20054;-69
2022/06/20 12:37:03;;;;;;;4.60;2.08;;;23.00;39.40;;;;;;4946675;28;20059;-70
2022/06/20 12:39:43;;;;;;;5.07;2.00;;;23.40;39.80;;;;;;4951038;29;20058;-70
2022/06/20 12:42:29;;;;;;;5.82;2.00;;;23.70;39.10;;;;;;4945872;29;20075;-71
2022/06/20 12:45:27;;;;;;;18.17;2.60;;;24.00;38.60;;;;;;4944916;29;20114;-70
2022/06/20 12:48:01;;;;;;;4.82;1.80;;;24.50;38.10;;;;;;4939131;29;20048;-71
2022/06/20 12:50:48;;;;;;;6.63;1.92;;;24.90;37.40;;;;;;4948994;29;20044;-71
2022/06/20 12:53:47;;;;;;;4.32;1.70;;;25.00;35.70;;;;;;4952266;29;20055;-70
2022/06/20 12:56:29;;;;;;;4.28;1.95;;;24.80;35.30;;;;;;4954211;28;20509;-70
2022/06/20 12:59:09;;;;;;;5.50;2.00;;;24.90;35.70;;;;;;4954845;29;20393;-69
2022/06/20 13:02:03;;;;;;;7.57;2.20;;;25.30;35.30;;;;;;4937723;29;20059;-70
2022/06/20 13:04:55;;;;;;;5.90;2.15;;;25.60;35.10;;;;;;4947714;29;20058;-70
2022/06/20 13:07:41;;;;;;;4.00;2.10;;;26.10;35.10;;;;;;4950078;28;20210;-71
2022/06/20 13:10:34;;;;;;;5.60;2.17;;;26.50;33.70;;;;;;4942552;29;20648;-70
2022/06/20 13:13:22;;;;;;;4.93;1.90;;;26.80;32.70;;;;;;4935815;29;20043;-70
2022/06/20 13:15:59;;;;;;;9.45;2.05;;;27.10;32.60;;;;;;4944762;28;20068;-71
2022/06/20 13:18:48;;;;;;;5.53;2.05;;;27.40;32.90;;;;;;4944892;29;20407;-71
2022/06/20 13:21:27;;;;;;;3.78;2.30;;;27.70;32.30;;;;;;4953223;29;20131;-71
2022/06/20 13:24:09;;;;;;;9.02;2.30;;;27.80;32.20;;;;;;4953957;28;20090;-70
2022/06/20 13:26:49;;;;;;;7.00;2.30;;;28.00;31.30;;;;;;4954148;29;20398;-70
2022/06/20 13:29:16;;;;;;;4.22;1.98;;;28.10;30.80;;;;;;4935731;29;20051;-70
2022/06/20 13:31:52;;;;;;;6.35;2.53;;;28.10;31.20;;;;;;4934691;29;20074;-70
2022/06/20 13:34:32;;;;;;;4.10;2.35;;;28.30;31.40;;;;;;4935432;29;20051;-70
2022/06/20 13:37:04;;;;;;;7.15;2.50;;;28.70;31.00;;;;;;4934743;29;20055;-70
2022/06/20 13:40:12;;;;;;;4.68;2.47;;;28.90;30.00;;;;;;4934952;29;20047;-70
2022/06/20 13:43:05;;;;;;;7.80;2.42;;;29.00;29.40;;;;;;4930350;29;20059;-71
2022/06/20 13:45:55;;;;;;;7.00;2.70;;;29.10;29.80;;;;;;4941933;29;20066;-69
2022/06/20 13:48:29;;;;;;;6.55;2.78;;;29.30;29.50;;;;;;4936248;29;20482;-70
2022/06/20 13:51:15;;;;;;;10.00;3.00;;;29.50;29.50;;;;;;4953628;29;20509;-71
2022/06/20 13:53:59;;;;;;;6.97;3.00;;;29.40;27.60;;;;;;4935397;28;20051;-70
2022/06/20 13:56:40;;;;;;;4.80;2.90;;;29.00;28.30;;;;;;4934760;29;20402;-71
2022/06/20 13:59:14;;;;;;;6.32;2.80;;;28.40;28.60;;;;;;4934393;29;20394;-70
2022/06/20 14:01:54;;;;;;;5.63;2.90;;;28.00;29.30;;;;;;4934737;29;20044;-70
2022/06/20 14:04:22;;;;;;;5.95;2.25;;;28.00;29.60;;;;;;4934850;29;20418;-71
2022/06/20 14:07:02;;;;;;;5.72;2.63;;;28.20;29.90;;;;;;4934490;29;20055;-71
2022/06/20 14:09:36;;;;;;;27.75;3.95;;;28.60;29.40;;;;;;4934694;29;20051;-71
2022/06/20 14:12:19;;;;;;;11.43;2.50;;;28.60;29.20;;;;;;4935163;29;20051;-71
2022/06/20 14:14:52;;;;;;;7.75;3.13;;;28.50;29.30;;;;;;4932827;29;20064;-71
2022/06/20 14:17:23;;;;;;;9.90;3.10;;;28.40;29.50;;;;;;4934379;29;20062;-71
2022/06/20 14:19:57;;;;;;;6.90;2.90;;;28.60;29.50;;;;;;4948671;29;20052;-71
2022/06/20 14:22:34;;;;;;;5.95;2.50;;;28.80;29.40;;;;;;4941234;29;20050;-70
2022/06/20 14:25:19;;;;;;;6.50;3.08;;;29.30;29.20;;;;;;4946918;29;20051;-71
2022/06/20 14:27:52;;;;;;;9.25;2.75;;;29.80;28.60;;;;;;4934177;29;20056;-71
2022/06/20 14:30:28;;;;;;;9.50;2.67;;;29.80;28.30;;;;;;4943528;29;20051;-72
2022/06/20 14:33:12;;;;;;;7.15;2.83;;;29.90;28.30;;;;;;4952525;29;20058;-72
2022/06/20 14:35:44;;;;;;;9.40;3.30;;;30.10;28.10;;;;;;4942471;28;20074;-71
2022/06/20 14:38:43;;;;;;;9.00;2.75;;;30.20;27.90;;;;;;4943984;28;20052;-72